Time;durP1;ratioP1;P1;durP2;ratioP2;P2;SDS_P1;SDS_P2;PMS_P1;PMS_P2;Temp;Humidity;BMP_temperature;BMP_pressure;BME280_temperature;BME280_humidity;BME280_pressure;Samples;Min_cycle;Max_cycle;Signal;HPM_P1;HPM_P2
2023/06/04 00:01:40;;;;;;;4.75;2.25;;;10.50;99.90;;;;;;4844283;29;20136;-94
2023/06/04 00:04:16;;;;;;;7.22;2.80;;;10.40;99.90;;;;;;4817367;29;20066;-95
2023/06/04 00:06:49;;;;;;;4.50;2.00;;;10.30;99.90;;;;;;4859265;29;20107;-94
2023/06/04 00:09:18;;;;;;;3.42;2.40;;;10.30;99.90;;;;;;4861116;29;20093;-94
2023/06/04 00:11:49;;;;;;;5.10;2.35;;;10.20;99.90;;;;;;4848334;29;20375;-94
2023/06/04 00:14:18;;;;;;;5.78;2.28;;;10.00;99.90;;;;;;4854118;29;20496;-94
2023/06/04 00:16:44;;;;;;;4.75;2.20;;;9.90;99.90;;;;;;4855394;29;20121;-94
2023/06/04 00:19:13;;;;;;;4.68;2.53;;;10.10;99.90;;;;;;4844840;29;20057;-94
2023/06/04 00:21:42;;;;;;;5.68;2.05;;;;;;;;;;4844294;29;20044;-95
2023/06/04 00:24:08;;;;;;;5.53;2.65;;;10.10;99.90;;;;;;4859184;29;20073;-95
2023/06/04 00:26:37;;;;;;;5.03;2.50;;;10.00;99.90;;;;;;4842383;29;20045;-94
2023/06/04 00:29:35;;;;;;;5.60;2.53;;;10.00;99.90;;;;;;4846326;29;20139;-95
2023/06/04 00:32:25;;;;;;;5.70;2.30;;;9.60;99.90;;;;;;4843615;29;20157;-95
2023/06/04 00:34:59;;;;;;;4.75;2.40;;;9.90;99.90;;;;;;4864544;29;20041;-95
2023/06/04 00:37:52;;;;;;;6.35;2.40;;;9.80;99.90;;;;;;4848038;29;20081;-95
2023/06/04 00:40:21;;;;;;;3.78;2.50;;;9.80;99.90;;;;;;4850342;29;20041;-95
2023/06/04 00:43:45;;;;;;;5.18;2.60;;;9.40;99.90;;;;;;4844654;29;20182;-96
2023/06/04 00:46:18;;;;;;;4.25;2.20;;;9.90;99.90;;;;;;4846305;29;20095;-95
2023/06/04 00:49:19;;;;;;;5.00;2.25;;;9.90;99.90;;;;;;4872824;29;20085;-95
2023/06/04 00:52:02;;;;;;;5.18;2.65;;;9.90;99.90;;;;;;4841786;29;20058;-94
2023/06/04 00:54:33;;;;;;;5.65;2.70;;;9.80;99.90;;;;;;4832635;29;20053;-95
2023/06/04 00:57:06;;;;;;;5.53;2.55;;;9.80;99.90;;;;;;4855514;29;20135;-95
2023/06/04 00:59:33;;;;;;;3.75;2.40;;;10.00;99.90;;;;;;4843925;29;20045;-94
2023/06/04 01:02:34;;;;;;;6.47;2.70;;;9.70;99.90;;;;;;4843799;29;20132;-95
2023/06/04 01:05:33;;;;;;;3.80;2.45;;;9.70;99.90;;;;;;4853780;29;20053;-95
2023/06/04 01:07:59;;;;;;;3.85;2.50;;;9.70;99.90;;;;;;4844367;29;20069;-94
2023/06/04 01:10:30;;;;;;;5.05;2.55;;;9.70;99.90;;;;;;4847199;29;20038;-95
2023/06/04 01:13:07;;;;;;;6.50;2.58;;;9.70;99.90;;;;;;4848139;29;20049;-95
2023/06/04 01:15:33;;;;;;;4.90;2.92;;;9.70;99.90;;;;;;4860435;29;20139;-95
2023/06/04 01:18:55;;;;;;;5.38;2.88;;;9.70;99.90;;;;;;4824466;29;20049;-95
2023/06/04 01:21:21;;;;;;;6.22;3.05;;;9.80;99.90;;;;;;4830467;29;20055;-95
2023/06/04 01:24:29;;;;;;;5.53;2.63;;;9.80;99.90;;;;;;4832957;29;20088;-95
2023/06/04 01:26:55;;;;;;;3.58;2.58;;;9.90;99.90;;;;;;4842203;29;20077;-95
2023/06/04 01:29:30;;;;;;;7.28;3.03;;;9.90;99.90;;;;;;4849915;29;20105;-95
2023/06/04 01:31:57;;;;;;;4.50;2.83;;;9.90;99.90;;;;;;4834670;29;20041;-95
2023/06/04 01:34:48;;;;;;;5.80;3.15;;;9.90;99.90;;;;;;4830936;29;20049;-94
2023/06/04 01:37:19;;;;;;;4.40;1.83;;;9.90;99.90;;;;;;4848276;29;20127;-95
2023/06/04 01:39:48;;;;;;;4.72;2.20;;;9.90;99.90;;;;;;4867650;23;20108;-33
2023/06/04 01:42:14;;;;;;;4.32;2.22;;;9.90;99.90;;;;;;4883826;29;20040;-33
2023/06/04 01:44:40;;;;;;;4.97;2.60;;;9.90;99.90;;;;;;4888725;29;20112;-33
2023/06/04 01:47:05;;;;;;;5.85;3.13;;;9.90;99.90;;;;;;4888469;29;20584;-33
2023/06/04 01:49:31;;;;;;;4.53;2.35;;;9.80;99.90;;;;;;4890068;29;20116;-33
2023/06/04 01:51:57;;;;;;;9.20;3.00;;;9.90;99.90;;;;;;4890911;29;20825;-33
2023/06/04 01:54:22;;;;;;;6.00;2.83;;;9.80;99.90;;;;;;4891264;29;20040;-33
2023/06/04 01:56:48;;;;;;;4.75;2.60;;;9.80;99.90;;;;;;4891761;29;20068;-33
2023/06/04 01:59:16;;;;;;;5.63;3.25;;;9.80;99.90;;;;;;4890443;29;20515;-33
2023/06/04 02:01:42;;;;;;;4.85;2.60;;;9.80;99.90;;;;;;4875211;29;20467;-33
2023/06/04 02:04:07;;;;;;;6.72;2.80;;;9.80;99.90;;;;;;4886281;29;20056;-33
2023/06/04 02:06:36;;;;;;;4.32;2.45;;;9.80;99.90;;;;;;4884067;29;20041;-33
2023/06/04 02:09:03;;;;;;;5.00;2.45;;;9.80;99.90;;;;;;4868809;29;20200;-33
2023/06/04 02:11:29;;;;;;;4.95;2.60;;;9.70;99.90;;;;;;4877838;29;20441;-33
2023/06/04 02:13:55;;;;;;;5.20;2.40;;;9.70;99.90;;;;;;4893743;29;20060;-33
2023/06/04 02:16:21;;;;;;;5.13;2.38;;;9.70;99.90;;;;;;4894912;29;20052;-33
2023/06/04 02:18:46;;;;;;;5.57;2.63;;;9.60;99.90;;;;;;4889351;29;20085;-33
2023/06/04 02:21:12;;;;;;;16.75;3.25;;;9.60;99.90;;;;;;4894897;29;20565;-33
2023/06/04 02:23:37;;;;;;;11.55;3.00;;;9.60;99.90;;;;;;4894097;29;20079;-33
2023/06/04 02:26:03;;;;;;;4.35;2.00;;;9.50;99.90;;;;;;4879270;29;20056;-33
2023/06/04 02:28:29;;;;;;;60.55;3.65;;;9.40;99.90;;;;;;4889038;29;20037;-33
2023/06/04 02:30:55;;;;;;;58.47;3.35;;;9.30;99.90;;;;;;4888130;29;20452;-33
2023/06/04 02:33:21;;;;;;;14.95;1.83;;;9.20;99.90;;;;;;4891181;29;20516;-33
2023/06/04 02:35:46;;;;;;;2.47;1.10;;;9.00;99.90;;;;;;4888460;29;20046;-33
2023/06/04 02:38:12;;;;;;;5.43;1.38;;;8.90;99.90;;;;;;4888954;29;20048;-33
2023/06/04 02:40:39;;;;;;;26.83;1.95;;;8.90;99.90;;;;;;4889361;29;20083;-33
2023/06/04 02:43:04;;;;;;;45.63;3.13;;;8.80;99.90;;;;;;4889653;29;20088;-33
2023/06/04 02:45:30;;;;;;;12.13;1.42;;;8.60;99.90;;;;;;4891142;29;20459;-33
2023/06/04 02:47:57;;;;;;;2.33;1.15;;;8.50;99.90;;;;;;4875071;29;20040;-33
2023/06/04 02:50:23;;;;;;;2.78;1.15;;;8.40;99.90;;;;;;4895008;29;20043;-33
2023/06/04 02:52:50;;;;;;;1.42;0.80;;;8.30;99.90;;;;;;4878064;29;20060;-33
2023/06/04 02:55:25;;;;;;;4.47;1.10;;;8.30;99.90;;;;;;4896523;29;20041;-33
2023/06/04 02:58:28;;;;;;;11.13;1.50;;;8.20;99.90;;;;;;4908739;29;20060;-33
2023/06/04 03:01:19;;;;;;;8.02;1.17;;;8.20;99.90;;;;;;4891106;29;20052;-33
2023/06/04 03:03:51;;;;;;;33.07;2.00;;;8.10;99.90;;;;;;4893208;29;20052;-33
2023/06/04 03:06:33;;;;;;;36.10;2.58;;;8.10;99.90;;;;;;4893362;29;20080;-33
2023/06/04 03:09:00;;;;;;;52.27;3.27;;;8.10;99.90;;;;;;4904249;29;20060;-33
2023/06/04 03:11:36;;;;;;;63.97;3.67;;;8.20;99.90;;;;;;4885909;29;20123;-33
2023/06/04 03:20:17;;;;;;;40.75;3.22;;;8.20;99.90;;;;;;4890735;29;20057;-95
2023/06/04 03:28:57;;;;;;;14.15;1.45;;;8.30;99.90;;;;;;4888552;29;20056;-95
2023/06/04 03:35:14;;;;;;;;;;;;;;;;;;;;;
2023/06/04 03:38:00;;;;;;;27.90;3.08;;;8.30;99.90;;;;;;4901375;29;20051;-94
2023/06/04 03:40:45;;;;;;;14.05;2.63;;;8.30;99.90;;;;;;4902659;29;20161;-95
2023/06/04 03:43:28;;;;;;;11.02;3.67;;;8.40;99.90;;;;;;4879401;29;20040;-95
2023/06/04 03:46:26;;;;;;;3.50;2.60;;;8.30;99.90;;;;;;4901556;29;20052;-96
2023/06/04 03:49:04;;;;;;;30.52;4.05;;;8.40;99.90;;;;;;4900587;29;20112;-95
2023/06/04 03:52:28;;;;;;;31.75;3.15;;;8.30;99.90;;;;;;4887088;29;20379;-93
2023/06/04 03:55:24;;;;;;;21.25;2.85;;;8.30;99.90;;;;;;4876090;29;20051;-95
2023/06/04 03:57:50;;;;;;;4.40;2.00;;;8.30;99.90;;;;;;4899744;29;20051;-94
2023/06/04 04:00:20;;;;;;;19.73;2.50;;;8.20;99.90;;;;;;4915231;29;20048;-95
2023/06/04 04:03:00;;;;;;;6.45;1.90;;;8.20;99.90;;;;;;4879599;29;20088;-94
2023/06/04 04:05:52;;;;;;;8.43;2.03;;;8.30;99.90;;;;;;4872565;29;20479;-94
2023/06/04 04:08:21;;;;;;;2.95;1.10;;;8.30;99.90;;;;;;4861445;29;20036;-95
2023/06/04 04:10:59;;;;;;;8.20;1.55;;;8.20;99.90;;;;;;4882315;29;20123;-94
2023/06/04 04:13:57;;;;;;;19.83;2.33;;;8.20;99.90;;;;;;4884439;29;20051;-95
2023/06/04 04:19:37;;;;;;;17.52;2.10;;;7.80;99.90;;;;;;4864879;29;20064;-95
2023/06/04 04:22:08;;;;;;;26.10;2.90;;;7.60;99.90;;;;;;4865144;29;20115;-95
2023/06/04 04:24:49;;;;;;;7.07;2.00;;;8.30;99.90;;;;;;4865934;29;20053;-95
2023/06/04 04:27:15;;;;;;;3.00;1.90;;;8.30;99.90;;;;;;4865820;29;20044;-95
2023/06/04 04:30:13;;;;;;;3.50;1.80;;;8.30;99.90;;;;;;4888130;29;20404;-95
2023/06/04 04:33:17;;;;;;;4.32;1.95;;;8.90;99.90;;;;;;4855041;29;20057;-94
2023/06/04 04:35:54;;;;;;;3.05;1.70;;;8.80;99.90;;;;;;4850491;29;20049;-96
2023/06/04 04:38:31;;;;;;;4.43;2.15;;;8.60;99.90;;;;;;4809524;29;20408;-96
2023/06/04 04:41:09;;;;;;;2.95;2.40;;;8.70;99.90;;;;;;4855515;29;20114;-95
2023/06/04 04:43:48;;;;;;;4.22;2.63;;;8.80;99.90;;;;;;4844835;29;20132;-94
2023/06/04 04:46:51;;;;;;;3.50;2.30;;;8.90;99.90;;;;;;4841665;29;20918;-95
2023/06/04 04:49:45;;;;;;;4.38;2.60;;;9.20;99.90;;;;;;4851532;29;20054;-96
2023/06/04 04:52:11;;;;;;;4.70;2.60;;;9.10;99.90;;;;;;4801991;29;20160;-94
2023/06/04 04:58:20;;;;;;;3.75;2.33;;;9.20;99.90;;;;;;4821819;29;20117;-96
2023/06/04 05:07:15;;;;;;;4.10;2.60;;;9.20;99.90;;;;;;4795691;29;20053;-96
2023/06/04 05:09:58;;;;;;;3.92;2.72;;;9.60;99.90;;;;;;4781721;29;20088;-94
2023/06/04 05:15:57;;;;;;;5.03;3.40;;;9.80;99.90;;;;;;4781994;29;20584;-95
2023/06/04 05:19:40;;;;;;;5.60;3.30;;;9.50;99.90;;;;;;4810659;29;20160;-96
2023/06/04 05:23:07;;;;;;;6.15;4.07;;;10.20;99.90;;;;;;4793596;29;20054;-95
2023/06/04 05:25:50;;;;;;;5.97;4.22;;;10.20;99.90;;;;;;4788428;29;20063;-95
2023/06/04 05:28:29;;;;;;;7.15;4.97;;;10.50;99.90;;;;;;4764910;29;20085;-95
2023/06/04 05:31:18;;;;;;;8.52;4.55;;;10.70;99.90;;;;;;4799778;29;20065;-95
2023/06/04 05:34:19;;;;;;;7.53;4.05;;;10.80;99.90;;;;;;4788387;29;20120;-95
2023/06/04 05:37:08;;;;;;;7.03;4.30;;;10.70;99.90;;;;;;4774468;29;20630;-95
2023/06/04 05:40:21;;;;;;;6.85;4.78;;;11.30;99.90;;;;;;4786468;29;20051;-95
2023/06/04 05:43:45;;;;;;;8.43;4.68;;;11.30;99.90;;;;;;4780449;29;20048;-95
2023/06/04 05:46:27;;;;;;;8.52;4.45;;;11.30;99.90;;;;;;4772502;30;20051;-95
2023/06/04 05:49:20;;;;;;;5.57;3.50;;;11.80;99.90;;;;;;4778715;29;20047;-96
2023/06/04 05:52:12;;;;;;;;;;;;;;;;;;;;;
2023/06/04 05:57:56;;;;;;;7.15;3.60;;;15.10;99.90;;;;;;4757768;30;20051;-96
2023/06/04 06:00:44;;;;;;;;;;;16.50;99.90;;;;;;4791467;29;20552;-96
2023/06/04 06:03:16;;;;;;;6.30;2.90;;;17.20;99.90;;;;;;4817988;29;19925;-96
2023/06/04 06:06:20;;;;;;;5.22;3.22;;;17.70;99.90;;;;;;4820701;29;20062;-96
2023/06/04 06:09:13;;;;;;;6.72;2.53;;;17.80;99.90;;;;;;4794217;29;20067;-96
2023/06/04 06:11:50;;;;;;;6.28;2.70;;;17.80;99.90;;;;;;4876059;29;20048;-96
2023/06/04 06:14:23;;;;;;;6.25;2.70;;;17.70;99.90;;;;;;4848915;29;20037;-96
2023/06/04 06:17:12;;;;;;;5.15;2.47;;;17.90;99.90;;;;;;4885225;29;20079;-95
2023/06/04 06:19:47;;;;;;;5.28;1.83;;;18.50;99.90;;;;;;4889561;29;20051;-96
2023/06/04 06:32:38;;;;;;;4.13;1.60;;;16.80;99.90;;;;;;5553056;23;20064;-96
2023/06/04 06:35:05;;;;;;;2.95;1.27;;;16.40;99.90;;;;;;4869472;29;20047;-96
2023/06/04 06:37:31;;;;;;;4.15;1.58;;;16.30;99.90;;;;;;4847367;29;20497;-96
2023/06/04 06:39:57;;;;;;;4.82;1.35;;;16.20;99.90;;;;;;4870313;29;20040;-96
2023/06/04 06:42:25;;;;;;;4.68;1.63;;;16.10;99.90;;;;;;4873855;29;20088;-95
2023/06/04 06:44:51;;;;;;;4.22;1.50;;;16.00;99.90;;;;;;4866181;29;20041;-96
2023/06/04 06:48:03;;;;;;;2.85;1.10;;;16.10;99.90;;;;;;4868363;29;20024;-96
2023/06/04 06:50:35;;;;;;;4.05;1.33;;;15.90;99.90;;;;;;4888433;29;20060;-96
2023/06/04 06:54:02;;;;;;;3.22;1.40;;;16.00;99.90;;;;;;4884900;29;20040;-96
2023/06/04 07:10:03;;;;;;;3.58;1.20;;;21.00;99.90;;;;;;4970081;23;20044;-96
2023/06/04 07:15:23;;;;;;;2.58;0.98;;;22.20;99.90;;;;;;4928500;23;20045;-96
2023/06/04 07:21:48;;;;;;;1.58;0.75;;;23.40;87.90;;;;;;5047329;23;20181;-96
2023/06/04 07:24:17;;;;;;;3.53;1.10;;;23.20;99.60;;;;;;4879507;29;20057;-96
2023/06/04 07:26:45;;;;;;;3.10;1.10;;;23.20;94.60;;;;;;4859359;29;20076;-96
2023/06/04 07:29:35;;;;;;;3.28;0.90;;;23.40;88.30;;;;;;5067012;23;20060;-96
2023/06/04 07:32:12;;;;;;;1.23;0.80;;;23.60;76.60;;;;;;4899355;29;20097;-96
2023/06/04 07:35:20;;;;;;;2.60;0.80;;;23.80;81.30;;;;;;4876658;29;20025;-96
2023/06/04 07:37:48;;;;;;;3.40;0.90;;;24.20;73.40;;;;;;4877785;29;20195;-96
2023/06/04 07:40:15;;;;;;;2.38;0.80;;;24.10;77.00;;;;;;4873812;29;20100;-96
2023/06/04 07:42:46;;;;;;;1.77;0.75;;;24.30;75.30;;;;;;4866593;29;20081;-96
2023/06/04 07:45:21;;;;;;;1.60;0.82;;;24.60;73.80;;;;;;4858316;29;20047;-96
2023/06/04 07:47:47;;;;;;;3.17;0.90;;;24.40;71.90;;;;;;4869356;29;20053;-95
2023/06/04 07:50:15;;;;;;;2.60;0.90;;;24.50;72.60;;;;;;4872496;29;20059;-96
2023/06/04 07:52:41;;;;;;;2.42;1.00;;;24.40;71.60;;;;;;4879358;29;20043;-96
2023/06/04 07:55:13;;;;;;;3.33;0.80;;;24.40;69.60;;;;;;4871458;29;20049;-96
2023/06/04 07:57:39;;;;;;;1.20;0.50;;;24.30;69.90;;;;;;4873088;29;20051;-96
2023/06/04 08:00:06;;;;;;;4.00;0.80;;;24.40;69.80;;;;;;4869700;29;20096;-88
2023/06/04 08:02:31;;;;;;;;;;;24.60;69.10;;;;;;4832114;29;20465;-89
2023/06/04 08:04:57;;;;;;;4.22;0.70;;;24.20;67.00;;;;;;4865533;29;19919;-87
2023/06/04 08:07:23;;;;;;;1.50;0.90;;;23.90;71.00;;;;;;4821921;29;20475;-86
2023/06/04 08:09:49;;;;;;;2.30;0.90;;;23.30;71.10;;;;;;4833693;29;20044;-93
2023/06/04 08:12:16;;;;;;;2.53;1.08;;;22.80;72.60;;;;;;4876261;29;20080;-93
2023/06/04 08:14:41;;;;;;;2.22;0.98;;;22.40;72.20;;;;;;4853593;29;20617;-89
2023/06/04 08:17:07;;;;;;;4.17;1.03;;;22.00;72.10;;;;;;4864798;29;20073;-91
2023/06/04 08:19:36;;;;;;;1.73;0.83;;;21.90;72.90;;;;;;4859299;29;20364;-91
2023/06/04 08:22:02;;;;;;;3.17;0.77;;;21.60;72.80;;;;;;4863154;29;20412;-91
2023/06/04 08:24:28;;;;;;;1.92;0.93;;;21.40;73.30;;;;;;4854046;29;20045;-91
2023/06/04 08:26:53;;;;;;;3.53;1.10;;;21.70;74.00;;;;;;4876120;29;20077;-91
2023/06/04 08:29:19;;;;;;;2.67;1.13;;;22.10;73.10;;;;;;4877302;29;20048;-93
2023/06/04 08:31:45;;;;;;;4.30;1.50;;;22.20;72.60;;;;;;4906097;29;20052;-92
2023/06/04 08:34:11;;;;;;;1.58;0.70;;;22.10;72.60;;;;;;4918722;29;20036;-91
2023/06/04 08:36:36;;;;;;;3.13;0.77;;;21.90;72.90;;;;;;4886572;29;20035;-90
2023/06/04 08:39:02;;;;;;;3.00;1.08;;;21.90;73.40;;;;;;4873900;29;20484;-92
2023/06/04 08:41:32;;;;;;;2.30;0.90;;;21.90;73.60;;;;;;4868395;29;20044;-92
2023/06/04 08:44:01;;;;;;;2.15;0.80;;;22.00;73.50;;;;;;4898508;29;20459;-92
2023/06/04 08:46:28;;;;;;;1.70;0.82;;;21.90;73.20;;;;;;4878753;29;20199;-92
2023/06/04 08:48:59;;;;;;;3.20;1.00;;;21.90;73.50;;;;;;4862507;29;20229;-91
2023/06/04 08:51:25;;;;;;;2.88;1.13;;;22.00;73.80;;;;;;4893881;29;20044;-92
2023/06/04 08:53:53;;;;;;;5.00;1.10;;;22.20;73.30;;;;;;4872784;29;20137;-91
2023/06/04 08:56:22;;;;;;;1.98;0.68;;;22.50;72.40;;;;;;4875548;29;20041;-90
2023/06/04 08:58:48;;;;;;;2.53;0.70;;;22.90;71.10;;;;;;4879188;29;20497;-91
2023/06/04 09:01:14;;;;;;;2.78;0.90;;;23.20;70.70;;;;;;4896048;29;20119;-92
2023/06/04 09:03:41;;;;;;;2.45;0.75;;;23.20;70.10;;;;;;4901640;29;20043;-92
2023/06/04 09:06:08;;;;;;;4.32;0.77;;;22.80;69.90;;;;;;4869401;29;20127;-91
2023/06/04 09:08:37;;;;;;;3.55;1.15;;;22.60;70.40;;;;;;4884928;29;20044;-92
2023/06/04 09:11:09;;;;;;;1.95;0.95;;;22.50;70.40;;;;;;4898527;29;20047;-92
2023/06/04 09:13:36;;;;;;;3.42;0.90;;;22.70;70.50;;;;;;4887439;29;20083;-92
2023/06/04 09:16:03;;;;;;;1.35;0.60;;;22.60;70.60;;;;;;4884726;29;20104;-91
2023/06/04 09:18:29;;;;;;;4.30;0.70;;;22.50;71.50;;;;;;4880693;29;20036;-93
2023/06/04 09:21:07;;;;;;;1.65;0.75;;;22.40;72.30;;;;;;4883056;29;20076;-91
2023/06/04 09:23:45;;;;;;;2.72;1.08;;;22.20;72.10;;;;;;4881959;29;20040;-91
2023/06/04 09:26:12;;;;;;;2.45;0.80;;;22.00;73.70;;;;;;4902213;29;20037;-92
2023/06/04 09:28:43;;;;;;;2.55;0.90;;;21.80;75.00;;;;;;4867853;29;20052;-90
2023/06/04 09:31:22;;;;;;;2.78;0.82;;;21.60;74.60;;;;;;4895984;29;20084;-91
2023/06/04 09:33:51;;;;;;;1.00;0.65;;;21.60;75.20;;;;;;4870945;29;20092;-90
2023/06/04 09:36:20;;;;;;;2.88;1.13;;;21.50;74.90;;;;;;4850516;29;20080;-89
2023/06/04 09:38:45;;;;;;;3.67;0.82;;;21.30;75.00;;;;;;4878751;29;20052;-89
2023/06/04 09:41:21;;;;;;;0.90;0.65;;;21.10;74.20;;;;;;4889180;29;20111;-90
2023/06/04 09:43:47;;;;;;;1.80;0.68;;;20.80;74.70;;;;;;4886391;29;20029;-88
2023/06/04 09:46:22;;;;;;;2.07;0.80;;;20.80;75.50;;;;;;4870427;29;20041;-87
2023/06/04 09:48:48;;;;;;;2.10;1.05;;;20.70;75.80;;;;;;4873785;29;20056;-91
2023/06/04 09:51:15;;;;;;;1.15;0.60;;;20.80;76.70;;;;;;4883257;29;20021;-83
2023/06/04 09:53:41;;;;;;;2.83;0.85;;;20.90;75.20;;;;;;4858734;29;20044;-83
2023/06/04 09:56:08;;;;;;;1.30;0.70;;;21.10;74.90;;;;;;4862118;29;20044;-84
2023/06/04 09:58:35;;;;;;;2.72;0.80;;;21.20;74.90;;;;;;4857471;29;20053;-86
2023/06/04 10:01:03;;;;;;;2.28;0.90;;;21.30;75.00;;;;;;4875054;29;20075;-85
2023/06/04 10:03:36;;;;;;;1.17;0.50;;;21.40;73.90;;;;;;4865988;29;20132;-85
2023/06/04 10:06:04;;;;;;;1.90;0.70;;;21.50;73.00;;;;;;4873530;29;20036;-84
2023/06/04 10:08:31;;;;;;;1.88;0.80;;;21.40;73.60;;;;;;4863076;29;20044;-85
2023/06/04 10:11:01;;;;;;;1.30;0.68;;;21.40;73.40;;;;;;4861336;29;20048;-86
2023/06/04 10:13:31;;;;;;;3.17;0.73;;;21.50;73.70;;;;;;4856886;29;20165;-85
2023/06/04 10:15:58;;;;;;;1.20;0.60;;;21.60;73.90;;;;;;4854869;29;20052;-86
2023/06/04 10:18:25;;;;;;;2.28;0.57;;;21.60;73.20;;;;;;4875317;29;20091;-84
2023/06/04 10:20:53;;;;;;;;;;;21.60;72.90;;;;;;4855851;29;20695;-85
2023/06/04 10:23:21;;;;;;;10.03;1.43;;;21.60;73.70;;;;;;4856542;29;19928;-84
2023/06/04 10:25:50;;;;;;;3.45;0.65;;;21.50;73.30;;;;;;4832196;29;20506;-85
2023/06/04 10:28:24;;;;;;;8.27;1.20;;;21.40;73.10;;;;;;4861654;29;20045;-86
2023/06/04 10:30:50;;;;;;;2.08;1.02;;;21.20;73.00;;;;;;4861220;29;20044;-89
2023/06/04 10:33:24;;;;;;;2.27;0.90;;;21.20;74.10;;;;;;4845289;29;20075;-87
2023/06/04 10:35:55;;;;;;;1.45;0.63;;;21.10;74.00;;;;;;4878560;29;20049;-87
2023/06/04 10:38:22;;;;;;;1.80;1.00;;;21.00;74.90;;;;;;4866921;29;20036;-86
2023/06/04 10:40:48;;;;;;;1.52;0.90;;;20.90;74.70;;;;;;4866748;29;20053;-87
2023/06/04 10:43:17;;;;;;;1.67;0.88;;;20.70;74.70;;;;;;4864140;29;20048;-86
2023/06/04 10:45:44;;;;;;;3.33;0.80;;;20.80;75.10;;;;;;4881017;29;20069;-86
2023/06/04 10:48:11;;;;;;;1.08;0.55;;;20.90;75.00;;;;;;4868390;29;20461;-85
2023/06/04 10:50:51;;;;;;;5.78;1.00;;;20.90;74.40;;;;;;4873125;29;20532;-88
2023/06/04 10:53:19;;;;;;;4.53;1.10;;;20.90;74.60;;;;;;4870898;29;20052;-86
2023/06/04 10:55:49;;;;;;;3.30;0.80;;;20.90;75.30;;;;;;4853569;29;20127;-88
2023/06/04 10:58:15;;;;;;;2.00;1.00;;;21.10;75.50;;;;;;4867048;29;20123;-87
2023/06/04 11:00:45;;;;;;;2.45;0.85;;;21.10;74.90;;;;;;4834046;29;20160;-87
2023/06/04 11:03:12;;;;;;;3.60;0.73;;;21.10;74.90;;;;;;4861332;29;20041;-89
2023/06/04 11:05:40;;;;;;;2.10;0.70;;;21.10;75.00;;;;;;4883397;29;20107;-87
2023/06/04 11:08:06;;;;;;;1.25;0.57;;;21.10;75.20;;;;;;4859962;29;20132;-89
2023/06/04 11:10:51;;;;;;;2.38;0.80;;;20.90;74.70;;;;;;4869833;29;20070;-86
2023/06/04 11:13:25;;;;;;;3.38;0.63;;;21.00;75.20;;;;;;4864713;29;20033;-85
2023/06/04 11:15:51;;;;;;;1.65;0.57;;;21.10;74.10;;;;;;4904473;29;20028;-86
2023/06/04 11:18:19;;;;;;;2.05;0.80;;;21.10;74.20;;;;;;4872922;29;20044;-86
2023/06/04 11:20:50;;;;;;;3.03;0.85;;;21.20;74.70;;;;;;4897263;29;20024;-86
2023/06/04 11:23:17;;;;;;;2.05;0.90;;;21.20;74.60;;;;;;4895049;29;20069;-87
2023/06/04 11:25:44;;;;;;;2.90;0.70;;;21.30;74.90;;;;;;4897815;29;20074;-86
2023/06/04 11:28:17;;;;;;;2.40;0.98;;;21.40;74.50;;;;;;4866548;29;20042;-85
2023/06/04 11:30:43;;;;;;;2.47;0.82;;;21.40;74.30;;;;;;4880040;29;20086;-86
2023/06/04 11:33:12;;;;;;;1.83;0.82;;;21.30;74.00;;;;;;4859281;29;20164;-85
2023/06/04 11:35:42;;;;;;;3.13;0.90;;;21.10;74.20;;;;;;4865507;29;20047;-86
2023/06/04 11:38:09;;;;;;;2.47;0.70;;;21.10;74.70;;;;;;4898802;29;20511;-91
2023/06/04 11:40:35;;;;;;;2.85;0.90;;;21.10;74.50;;;;;;4885565;29;20056;-90
2023/06/04 11:43:02;;;;;;;3.23;1.00;;;21.10;74.60;;;;;;4884339;29;20084;-91
2023/06/04 11:45:30;;;;;;;2.90;1.02;;;21.10;74.20;;;;;;4858150;29;20087;-90
2023/06/04 11:47:57;;;;;;;2.03;0.70;;;21.10;74.10;;;;;;4885819;29;20423;-92
2023/06/04 11:50:27;;;;;;;2.80;0.90;;;21.00;73.80;;;;;;4903196;29;20044;-93
2023/06/04 11:52:53;;;;;;;3.63;0.90;;;21.00;74.00;;;;;;4867625;29;20109;-90
2023/06/04 11:55:22;;;;;;;1.90;0.75;;;20.90;74.10;;;;;;4887755;29;20040;-85
2023/06/04 11:57:49;;;;;;;1.90;0.80;;;20.90;74.00;;;;;;4876018;29;20040;-86
2023/06/04 12:00:17;;;;;;;;;;;20.80;73.80;;;;;;4882149;29;20048;-88
2023/06/04 12:02:54;;;;;;;1.67;0.77;;;20.70;74.00;;;;;;4886678;29;19922;-89
2023/06/04 12:05:23;;;;;;;4.07;0.80;;;20.70;74.60;;;;;;4886478;29;20046;-88
2023/06/04 12:07:50;;;;;;;2.38;0.85;;;20.70;75.60;;;;;;4885487;29;20040;-89
2023/06/04 12:13:17;;;;;;;1.23;0.60;;;20.30;75.70;;;;;;4891301;29;20480;-39
2023/06/04 12:15:42;;;;;;;1.50;0.80;;;20.10;77.40;;;;;;4901725;29;20067;-39
2023/06/04 12:18:10;;;;;;;1.13;0.70;;;20.10;77.60;;;;;;4907510;29;20178;-39
2023/06/04 12:20:43;;;;;;;1.90;0.80;;;20.00;78.10;;;;;;4895100;29;20115;-39
2023/06/04 12:23:20;;;;;;;1.67;0.90;;;19.90;79.40;;;;;;4901627;29;20448;-39
2023/06/04 12:25:53;;;;;;;1.75;0.77;;;19.80;81.20;;;;;;4898496;29;20047;-39
2023/06/04 12:28:19;;;;;;;2.92;1.13;;;19.70;81.10;;;;;;4891302;29;20049;-39
2023/06/04 12:30:45;;;;;;;1.80;0.68;;;19.60;82.90;;;;;;4893142;29;20497;-39
2023/06/04 12:33:12;;;;;;;2.50;0.70;;;19.60;84.50;;;;;;4890785;29;20499;-39
2023/06/04 12:35:37;;;;;;;1.55;0.77;;;19.50;84.50;;;;;;4892546;29;20039;-39
2023/06/04 12:38:09;;;;;;;1.88;0.90;;;19.40;86.00;;;;;;4904570;29;20044;-39
2023/06/04 12:40:34;;;;;;;2.88;0.88;;;19.40;88.40;;;;;;4907802;29;20082;-39
2023/06/04 12:43:00;;;;;;;4.18;1.05;;;19.30;92.10;;;;;;4906518;29;20052;-39
2023/06/04 12:45:26;;;;;;;4.20;0.80;;;19.20;96.70;;;;;;4909030;29;20394;-39
2023/06/04 12:47:52;;;;;;;2.13;0.70;;;19.20;99.60;;;;;;4891789;29;20628;-39
2023/06/04 12:50:18;;;;;;;4.53;1.15;;;19.20;99.90;;;;;;4886285;29;20641;-39
2023/06/04 12:52:43;;;;;;;3.15;1.00;;;19.10;99.70;;;;;;4910212;29;20399;-38
2023/06/04 12:55:09;;;;;;;2.63;1.00;;;19.00;99.90;;;;;;4886911;29;20048;-39
2023/06/04 12:57:35;;;;;;;3.10;0.77;;;18.90;99.90;;;;;;4907216;29;20051;-39
2023/06/04 13:00:01;;;;;;;1.75;0.80;;;18.80;99.90;;;;;;4899435;29;20471;-39
2023/06/04 13:02:26;;;;;;;3.55;1.08;;;18.80;99.90;;;;;;4893054;29;20135;-39
2023/06/04 13:04:54;;;;;;;2.42;0.70;;;18.70;99.90;;;;;;4909832;29;20091;-39
2023/06/04 13:07:20;;;;;;;1.67;0.90;;;18.60;99.90;;;;;;4907017;29;20495;-39
2023/06/04 13:09:45;;;;;;;4.07;1.25;;;18.60;99.90;;;;;;4904100;29;20044;-39
2023/06/04 13:12:11;;;;;;;2.75;1.10;;;18.50;99.90;;;;;;4913329;29;20060;-39
2023/06/04 13:14:37;;;;;;;1.92;0.70;;;18.50;99.90;;;;;;4906757;29;20677;-39
2023/06/04 13:17:05;;;;;;;2.67;0.85;;;18.50;99.90;;;;;;4886663;29;20123;-39
2023/06/04 13:19:31;;;;;;;1.58;0.80;;;18.50;99.90;;;;;;4896642;29;20051;-39
2023/06/04 13:21:57;;;;;;;3.10;0.95;;;18.50;99.90;;;;;;4901446;29;20028;-39
2023/06/04 13:24:23;;;;;;;3.67;1.10;;;18.30;99.90;;;;;;4901788;29;20065;-40
2023/06/04 13:26:49;;;;;;;3.40;0.95;;;18.20;99.90;;;;;;4881143;29;20051;-39
2023/06/04 13:29:16;;;;;;;2.50;0.75;;;18.20;99.90;;;;;;4880916;29;20471;-39
2023/06/04 13:31:42;;;;;;;2.72;0.80;;;18.10;99.90;;;;;;4885073;29;20052;-39
2023/06/04 13:34:08;;;;;;;2.08;0.98;;;18.10;99.90;;;;;;4895035;29;20051;-39
2023/06/04 13:36:33;;;;;;;3.50;0.95;;;18.00;99.90;;;;;;4891919;29;20604;-39
2023/06/04 13:38:59;;;;;;;1.75;0.82;;;18.00;99.90;;;;;;4899837;29;20081;-39
2023/06/04 13:41:26;;;;;;;2.38;0.90;;;18.00;99.90;;;;;;4911740;29;20088;-39
2023/06/04 13:43:52;;;;;;;2.15;0.77;;;18.00;99.90;;;;;;4894006;29;20115;-39
2023/06/04 13:46:17;;;;;;;2.85;0.80;;;18.00;99.90;;;;;;4900277;29;20036;-39
2023/06/04 13:48:43;;;;;;;1.42;0.90;;;18.00;99.90;;;;;;4891241;29;20131;-39
2023/06/04 13:51:09;;;;;;;4.03;0.80;;;18.00;99.90;;;;;;4911383;29;20044;-39
2023/06/04 13:53:35;;;;;;;5.18;1.30;;;18.10;99.90;;;;;;4910018;29;20045;-39
2023/06/04 13:56:00;;;;;;;8.15;0.70;;;18.10;99.90;;;;;;4903639;29;20047;-39
2023/06/04 13:58:26;;;;;;;2.45;1.08;;;18.00;99.90;;;;;;4900835;29;20044;-39
2023/06/04 14:00:52;;;;;;;2.15;0.75;;;17.90;99.90;;;;;;4910096;29;20115;-39
2023/06/04 14:03:18;;;;;;;3.80;0.70;;;17.80;99.90;;;;;;4902334;29;20120;-39
2023/06/04 14:05:44;;;;;;;3.08;0.90;;;17.70;99.90;;;;;;4915578;29;20127;-39
2023/06/04 14:08:12;;;;;;;2.33;0.60;;;17.50;99.90;;;;;;4897311;29;20050;-39
2023/06/04 14:10:40;;;;;;;2.15;1.00;;;17.50;99.90;;;;;;4896619;29;20406;-40
2023/06/04 14:13:07;;;;;;;2.70;0.95;;;17.50;99.90;;;;;;4913412;29;20535;-40
2023/06/04 14:15:33;;;;;;;1.80;0.77;;;17.50;99.90;;;;;;4886157;29;20104;-40
2023/06/04 14:17:58;;;;;;;1.85;0.70;;;17.50;99.90;;;;;;4882461;29;20444;-40
2023/06/04 14:20:24;;;;;;;3.38;0.73;;;17.50;99.90;;;;;;4909941;29;20119;-40
2023/06/04 14:22:50;;;;;;;1.88;0.65;;;17.40;99.90;;;;;;4890167;29;20429;-40
2023/06/04 14:25:15;;;;;;;2.00;0.80;;;17.40;99.90;;;;;;4911201;29;20036;-39
2023/06/04 14:27:41;;;;;;;4.75;1.08;;;17.30;99.90;;;;;;4900368;29;20572;-40
2023/06/04 14:30:07;;;;;;;2.35;0.90;;;17.30;99.90;;;;;;4907234;29;20032;-40
2023/06/04 14:32:34;;;;;;;2.10;0.67;;;17.30;99.90;;;;;;4902750;29;20048;-40